sensor_id;sensor_type;location;lat;lon;timestamp;temperature;humidity
21387;DHT22;10854;45.922;6.716;2022-11-12T00:00:37;3.40;99.90
21387;DHT22;10854;45.922;6.716;2022-11-12T00:03:22;3.40;99.90
21387;DHT22;10854;45.922;6.716;2022-11-12T00:05:54;3.40;99.90
21387;DHT22;10854;45.922;6.716;2022-11-12T00:08:45;3.40;99.90
21387;DHT22;10854;45.922;6.716;2022-11-12T00:11:14;3.40;99.90
21387;DHT22;10854;45.922;6.716;2022-11-12T00:13:45;3.40;99.90
21387;DHT22;10854;45.922;6.716;2022-11-12T00:16:14;3.40;99.90
21387;DHT22;10854;45.922;6.716;2022-11-12T00:18:46;3.30;99.90
21387;DHT22;10854;45.922;6.716;2022-11-12T00:21:15;3.30;99.90
21387;DHT22;10854;45.922;6.716;2022-11-12T00:23:48;3.20;99.90
21387;DHT22;10854;45.922;6.716;2022-11-12T00:26:16;3.20;99.90
21387;DHT22;10854;45.922;6.716;2022-11-12T00:28:49;3.20;99.90
21387;DHT22;10854;45.922;6.716;2022-11-12T00:31:47;3.10;99.90
21387;DHT22;10854;45.922;6.716;2022-11-12T00:34:16;3.10;99.90
21387;DHT22;10854;45.922;6.716;2022-11-12T00:36:50;3.10;99.90
21387;DHT22;10854;45.922;6.716;2022-11-12T00:39:34;3.10;99.90
21387;DHT22;10854;45.922;6.716;2022-11-12T00:42:04;3.10;99.90
21387;DHT22;10854;45.922;6.716;2022-11-12T00:44:39;3.10;99.90
21387;DHT22;10854;45.922;6.716;2022-11-12T00:47:19;3.10;99.90
21387;DHT22;10854;45.922;6.716;2022-11-12T00:49:48;3.00;99.90
21387;DHT22;10854;45.922;6.716;2022-11-12T00:52:20;3.00;99.90
21387;DHT22;10854;45.922;6.716;2022-11-12T00:54:49;3.00;99.90
21387;DHT22;10854;45.922;6.716;2022-11-12T00:57:17;3.00;99.90
21387;DHT22;10854;45.922;6.716;2022-11-12T01:00:15;3.00;99.90
21387;DHT22;10854;45.922;6.716;2022-11-12T01:02:46;3.10;99.90
21387;DHT22;10854;45.922;6.716;2022-11-12T01:05:31;3.00;99.90
21387;DHT22;10854;45.922;6.716;2022-11-12T01:08:03;3.00;99.90
21387;DHT22;10854;45.922;6.716;2022-11-12T01:10:40;2.90;99.90
21387;DHT22;10854;45.922;6.716;2022-11-12T01:13:11;2.90;99.90
21387;DHT22;10854;45.922;6.716;2022-11-12T01:15:43;2.80;99.90
21387;DHT22;10854;45.922;6.716;2022-11-12T01:18:13;2.90;99.90
21387;DHT22;10854;45.922;6.716;2022-11-12T01:20:45;2.90;99.90
21387;DHT22;10854;45.922;6.716;2022-11-12T01:23:16;2.90;99.90
21387;DHT22;10854;45.922;6.716;2022-11-12T01:25:44;3.00;99.90
21387;DHT22;10854;45.922;6.716;2022-11-12T01:28:14;3.00;99.90
21387;DHT22;10854;45.922;6.716;2022-11-12T01:34:07;3.00;99.90
21387;DHT22;10854;45.922;6.716;2022-11-12T01:36:39;3.00;99.90
21387;DHT22;10854;45.922;6.716;2022-11-12T01:39:10;3.00;99.90
21387;DHT22;10854;45.922;6.716;2022-11-12T01:41:43;2.90;99.90
21387;DHT22;10854;45.922;6.716;2022-11-12T01:44:27;3.00;99.90
21387;DHT22;10854;45.922;6.716;2022-11-12T01:47:13;2.90;99.90
21387;DHT22;10854;45.922;6.716;2022-11-12T01:49:59;2.90;99.90
21387;DHT22;10854;45.922;6.716;2022-11-12T01:52:57;2.90;99.90
21387;DHT22;10854;45.922;6.716;2022-11-12T01:55:54;2.90;99.90
21387;DHT22;10854;45.922;6.716;2022-11-12T01:58:26;2.80;99.90
21387;DHT22;10854;45.922;6.716;2022-11-12T02:01:03;2.80;99.90
21387;DHT22;10854;45.922;6.716;2022-11-12T02:03:39;2.70;99.90
21387;DHT22;10854;45.922;6.716;2022-11-12T02:06:12;2.70;99.90
21387;DHT22;10854;45.922;6.716;2022-11-12T02:08:43;2.70;99.90
21387;DHT22;10854;45.922;6.716;2022-11-12T02:11:45;2.60;99.90
21387;DHT22;10854;45.922;6.716;2022-11-12T02:14:15;2.60;99.90
21387;DHT22;10854;45.922;6.716;2022-11-12T02:17:11;2.50;99.90
21387;DHT22;10854;45.922;6.716;2022-11-12T02:19:53;2.50;99.90
21387;DHT22;10854;45.922;6.716;2022-11-12T02:22:26;2.40;99.90
21387;DHT22;10854;45.922;6.716;2022-11-12T02:24:58;2.40;99.90
21387;DHT22;10854;45.922;6.716;2022-11-12T02:27:28;2.30;99.90
21387;DHT22;10854;45.922;6.716;2022-11-12T02:30:02;2.30;99.90
21387;DHT22;10854;45.922;6.716;2022-11-12T02:33:04;2.30;99.90
21387;DHT22;10854;45.922;6.716;2022-11-12T02:35:33;2.30;99.90
21387;DHT22;10854;45.922;6.716;2022-11-12T02:38:09;2.20;99.90
21387;DHT22;10854;45.922;6.716;2022-11-12T02:40:42;2.20;99.90
21387;DHT22;10854;45.922;6.716;2022-11-12T02:43:17;2.20;99.90
21387;DHT22;10854;45.922;6.716;2022-11-12T02:49:44;2.30;99.90
21387;DHT22;10854;45.922;6.716;2022-11-12T02:52:39;2.40;99.90
21387;DHT22;10854;45.922;6.716;2022-11-12T02:55:18;2.40;99.90
21387;DHT22;10854;45.922;6.716;2022-11-12T03:01:09;2.40;99.90
21387;DHT22;10854;45.922;6.716;2022-11-12T03:03:37;2.40;99.90
21387;DHT22;10854;45.922;6.716;2022-11-12T03:06:07;2.40;99.90
21387;DHT22;10854;45.922;6.716;2022-11-12T03:08:37;2.30;99.90
21387;DHT22;10854;45.922;6.716;2022-11-12T03:11:13;2.30;99.90
21387;DHT22;10854;45.922;6.716;2022-11-12T03:13:45;2.30;99.90
21387;DHT22;10854;45.922;6.716;2022-11-12T03:16:46;2.30;99.90
21387;DHT22;10854;45.922;6.716;2022-11-12T03:19:23;2.30;99.90
21387;DHT22;10854;45.922;6.716;2022-11-12T03:21:57;2.30;99.90
21387;DHT22;10854;45.922;6.716;2022-11-12T03:24:26;2.20;99.90
21387;DHT22;10854;45.922;6.716;2022-11-12T03:26:58;2.20;99.90
21387;DHT22;10854;45.922;6.716;2022-11-12T03:29:37;2.20;99.90
21387;DHT22;10854;45.922;6.716;2022-11-12T03:32:34;2.20;99.90
21387;DHT22;10854;45.922;6.716;2022-11-12T03:35:04;2.20;99.90
21387;DHT22;10854;45.922;6.716;2022-11-12T03:37:55;2.30;99.90
21387;DHT22;10854;45.922;6.716;2022-11-12T03:40:24;2.40;99.90
21387;DHT22;10854;45.922;6.716;2022-11-12T03:42:53;2.40;99.90
21387;DHT22;10854;45.922;6.716;2022-11-12T03:45:54;2.40;99.90
21387;DHT22;10854;45.922;6.716;2022-11-12T03:48:29;2.40;99.90
21387;DHT22;10854;45.922;6.716;2022-11-12T03:50:59;2.40;99.90
21387;DHT22;10854;45.922;6.716;2022-11-12T03:53:35;2.40;99.90
21387;DHT22;10854;45.922;6.716;2022-11-12T03:56:32;2.50;99.90
21387;DHT22;10854;45.922;6.716;2022-11-12T03:59:07;2.40;99.90
21387;DHT22;10854;45.922;6.716;2022-11-12T04:01:45;2.40;99.90
21387;DHT22;10854;45.922;6.716;2022-11-12T04:04:18;2.30;99.90
21387;DHT22;10854;45.922;6.716;2022-11-12T04:06:54;2.30;99.90
21387;DHT22;10854;45.922;6.716;2022-11-12T04:09:44;2.40;99.90
21387;DHT22;10854;45.922;6.716;2022-11-12T04:12:13;2.30;99.90
21387;DHT22;10854;45.922;6.716;2022-11-12T04:15:05;2.30;99.90
21387;DHT22;10854;45.922;6.716;2022-11-12T04:18:03;2.30;99.90
21387;DHT22;10854;45.922;6.716;2022-11-12T04:21:00;2.20;99.90
21387;DHT22;10854;45.922;6.716;2022-11-12T04:24:28;2.20;99.90
21387;DHT22;10854;45.922;6.716;2022-11-12T04:27:35;2.20;99.90
21387;DHT22;10854;45.922;6.716;2022-11-12T04:30:05;2.20;99.90
21387;DHT22;10854;45.922;6.716;2022-11-12T04:32:52;2.10;99.90
21387;DHT22;10854;45.922;6.716;2022-11-12T04:35:26;2.10;99.90
21387;DHT22;10854;45.922;6.716;2022-11-12T04:38:10;2.10;99.90
21387;DHT22;10854;45.922;6.716;2022-11-12T04:40:55;2.10;99.90
21387;DHT22;10854;45.922;6.716;2022-11-12T04:43:44;2.10;99.90
21387;DHT22;10854;45.922;6.716;2022-11-12T04:46:33;2.00;99.90
21387;DHT22;10854;45.922;6.716;2022-11-12T04:49:04;2.00;99.90
21387;DHT22;10854;45.922;6.716;2022-11-12T04:51:34;2.00;99.90
21387;DHT22;10854;45.922;6.716;2022-11-12T04:54:22;2.00;99.90
21387;DHT22;10854;45.922;6.716;2022-11-12T04:56:56;1.90;99.90
21387;DHT22;10854;45.922;6.716;2022-11-12T04:59:24;1.90;99.90
21387;DHT22;10854;45.922;6.716;2022-11-12T05:01:54;1.90;99.90
21387;DHT22;10854;45.922;6.716;2022-11-12T05:04:30;2.00;99.90
21387;DHT22;10854;45.922;6.716;2022-11-12T05:07:06;2.00;99.90
21387;DHT22;10854;45.922;6.716;2022-11-12T05:09:39;2.10;99.90
21387;DHT22;10854;45.922;6.716;2022-11-12T05:12:09;2.10;99.90
21387;DHT22;10854;45.922;6.716;2022-11-12T05:14:39;2.00;99.90
21387;DHT22;10854;45.922;6.716;2022-11-12T05:17:09;2.00;99.90
21387;DHT22;10854;45.922;6.716;2022-11-12T05:19:46;2.00;99.90
21387;DHT22;10854;45.922;6.716;2022-11-12T05:22:15;1.90;99.90
21387;DHT22;10854;45.922;6.716;2022-11-12T05:25:05;1.90;99.90
21387;DHT22;10854;45.922;6.716;2022-11-12T05:27:37;1.90;99.90
21387;DHT22;10854;45.922;6.716;2022-11-12T05:30:06;1.90;99.90
21387;DHT22;10854;45.922;6.716;2022-11-12T05:32:38;1.90;99.90
21387;DHT22;10854;45.922;6.716;2022-11-12T05:35:09;1.90;99.90
21387;DHT22;10854;45.922;6.716;2022-11-12T05:37:39;1.80;99.90
21387;DHT22;10854;45.922;6.716;2022-11-12T05:40:09;1.80;99.90
21387;DHT22;10854;45.922;6.716;2022-11-12T05:42:43;1.70;99.90
21387;DHT22;10854;45.922;6.716;2022-11-12T05:45:13;1.70;99.90
21387;DHT22;10854;45.922;6.716;2022-11-12T05:47:42;1.70;99.90
21387;DHT22;10854;45.922;6.716;2022-11-12T05:50:19;1.70;99.90
21387;DHT22;10854;45.922;6.716;2022-11-12T05:56:34;1.70;99.90
21387;DHT22;10854;45.922;6.716;2022-11-12T05:59:06;1.70;99.90
21387;DHT22;10854;45.922;6.716;2022-11-12T06:01:40;1.70;99.90
21387;DHT22;10854;45.922;6.716;2022-11-12T06:04:13;1.70;99.90
21387;DHT22;10854;45.922;6.716;2022-11-12T06:06:45;1.80;99.90
21387;DHT22;10854;45.922;6.716;2022-11-12T06:09:13;1.80;99.90
21387;DHT22;10854;45.922;6.716;2022-11-12T06:11:46;1.80;99.90
21387;DHT22;10854;45.922;6.716;2022-11-12T06:14:20;1.80;99.90
21387;DHT22;10854;45.922;6.716;2022-11-12T06:16:49;1.80;99.90
21387;DHT22;10854;45.922;6.716;2022-11-12T06:19:28;1.80;99.90
21387;DHT22;10854;45.922;6.716;2022-11-12T06:22:39;1.80;99.90
21387;DHT22;10854;45.922;6.716;2022-11-12T06:25:09;1.80;99.90
21387;DHT22;10854;45.922;6.716;2022-11-12T06:27:43;1.80;99.90
21387;DHT22;10854;45.922;6.716;2022-11-12T06:30:12;1.80;99.90
21387;DHT22;10854;45.922;6.716;2022-11-12T06:32:40;1.80;99.90
21387;DHT22;10854;45.922;6.716;2022-11-12T06:35:18;1.80;99.90
21387;DHT22;10854;45.922;6.716;2022-11-12T06:37:48;1.80;99.90
21387;DHT22;10854;45.922;6.716;2022-11-12T06:40:34;1.80;99.90
21387;DHT22;10854;45.922;6.716;2022-11-12T06:43:05;1.80;99.90
21387;DHT22;10854;45.922;6.716;2022-11-12T06:45:37;1.80;99.90
21387;DHT22;10854;45.922;6.716;2022-11-12T06:48:08;1.80;99.90
21387;DHT22;10854;45.922;6.716;2022-11-12T06:50:38;1.90;99.90
21387;DHT22;10854;45.922;6.716;2022-11-12T06:53:06;1.90;99.90
21387;DHT22;10854;45.922;6.716;2022-11-12T06:55:35;2.00;99.90
21387;DHT22;10854;45.922;6.716;2022-11-12T06:58:12;2.00;99.90
21387;DHT22;10854;45.922;6.716;2022-11-12T07:00:42;2.10;99.90
21387;DHT22;10854;45.922;6.716;2022-11-12T07:03:34;2.10;99.90
21387;DHT22;10854;45.922;6.716;2022-11-12T07:06:06;2.20;99.90
21387;DHT22;10854;45.922;6.716;2022-11-12T07:08:50;2.30;99.90
21387;DHT22;10854;45.922;6.716;2022-11-12T07:11:20;2.40;99.90
21387;DHT22;10854;45.922;6.716;2022-11-12T07:13:49;2.40;99.90
21387;DHT22;10854;45.922;6.716;2022-11-12T07:16:19;2.50;99.90
21387;DHT22;10854;45.922;6.716;2022-11-12T07:18:52;2.60;99.90
21387;DHT22;10854;45.922;6.716;2022-11-12T07:21:22;2.60;99.90
21387;DHT22;10854;45.922;6.716;2022-11-12T07:23:51;2.70;99.90
21387;DHT22;10854;45.922;6.716;2022-11-12T07:26:24;2.80;99.90
21387;DHT22;10854;45.922;6.716;2022-11-12T07:28:57;2.90;99.90
21387;DHT22;10854;45.922;6.716;2022-11-12T07:31:26;3.00;99.90
21387;DHT22;10854;45.922;6.716;2022-11-12T07:33:56;3.10;99.90
21387;DHT22;10854;45.922;6.716;2022-11-12T07:36:24;3.30;99.90
21387;DHT22;10854;45.922;6.716;2022-11-12T07:38:57;3.40;99.90
21387;DHT22;10854;45.922;6.716;2022-11-12T07:41:26;3.50;99.90
21387;DHT22;10854;45.922;6.716;2022-11-12T07:43:55;3.60;99.90
21387;DHT22;10854;45.922;6.716;2022-11-12T07:46:26;3.70;99.90
21387;DHT22;10854;45.922;6.716;2022-11-12T07:48:55;3.80;99.90
21387;DHT22;10854;45.922;6.716;2022-11-12T07:51:26;3.90;99.90
21387;DHT22;10854;45.922;6.716;2022-11-12T07:53:57;3.90;99.90
21387;DHT22;10854;45.922;6.716;2022-11-12T07:56:27;4.10;99.90
21387;DHT22;10854;45.922;6.716;2022-11-12T07:58:56;4.20;99.90
21387;DHT22;10854;45.922;6.716;2022-11-12T08:04:03;4.50;99.90
21387;DHT22;10854;45.922;6.716;2022-11-12T08:06:32;4.60;99.90
21387;DHT22;10854;45.922;6.716;2022-11-12T08:09:06;4.70;99.90
21387;DHT22;10854;45.922;6.716;2022-11-12T08:11:36;4.90;99.90
21387;DHT22;10854;45.922;6.716;2022-11-12T08:14:05;5.00;99.90
21387;DHT22;10854;45.922;6.716;2022-11-12T08:16:34;5.10;99.90
21387;DHT22;10854;45.922;6.716;2022-11-12T08:19:04;5.20;99.90
21387;DHT22;10854;45.922;6.716;2022-11-12T08:21:33;5.30;99.90
21387;DHT22;10854;45.922;6.716;2022-11-12T08:24:04;5.40;99.90
21387;DHT22;10854;45.922;6.716;2022-11-12T08:26:35;5.50;99.90
21387;DHT22;10854;45.922;6.716;2022-11-12T08:29:04;5.60;99.90
21387;DHT22;10854;45.922;6.716;2022-11-12T08:31:35;5.70;99.90
21387;DHT22;10854;45.922;6.716;2022-11-12T08:34:05;5.80;99.90
21387;DHT22;10854;45.922;6.716;2022-11-12T08:36:53;6.00;99.90
21387;DHT22;10854;45.922;6.716;2022-11-12T08:39:22;6.20;99.90
21387;DHT22;10854;45.922;6.716;2022-11-12T08:41:52;6.30;99.90
21387;DHT22;10854;45.922;6.716;2022-11-12T08:44:20;6.40;99.90
21387;DHT22;10854;45.922;6.716;2022-11-12T08:46:50;6.50;99.90
21387;DHT22;10854;45.922;6.716;2022-11-12T08:49:19;6.70;99.90
21387;DHT22;10854;45.922;6.716;2022-11-12T08:51:47;6.90;99.90
21387;DHT22;10854;45.922;6.716;2022-11-12T08:54:16;7.10;99.90
21387;DHT22;10854;45.922;6.716;2022-11-12T08:56:45;7.30;99.90
21387;DHT22;10854;45.922;6.716;2022-11-12T08:59:16;7.50;99.90
21387;DHT22;10854;45.922;6.716;2022-11-12T09:01:45;7.70;99.90
21387;DHT22;10854;45.922;6.716;2022-11-12T09:04:14;8.00;99.90
21387;DHT22;10854;45.922;6.716;2022-11-12T09:06:43;8.40;99.90
21387;DHT22;10854;45.922;6.716;2022-11-12T09:09:14;8.90;99.90
21387;DHT22;10854;45.922;6.716;2022-11-12T09:11:43;9.50;99.90
21387;DHT22;10854;45.922;6.716;2022-11-12T09:14:12;10.10;99.90
21387;DHT22;10854;45.922;6.716;2022-11-12T09:16:56;10.70;99.90
21387;DHT22;10854;45.922;6.716;2022-11-12T09:19:52;11.20;99.90
21387;DHT22;10854;45.922;6.716;2022-11-12T09:22:27;11.70;99.90
21387;DHT22;10854;45.922;6.716;2022-11-12T09:24:56;11.80;99.90
21387;DHT22;10854;45.922;6.716;2022-11-12T09:27:27;12.00;99.90
21387;DHT22;10854;45.922;6.716;2022-11-12T09:29:56;12.00;99.90
21387;DHT22;10854;45.922;6.716;2022-11-12T09:32:29;12.00;99.90
21387;DHT22;10854;45.922;6.716;2022-11-12T09:34:59;12.00;99.90
21387;DHT22;10854;45.922;6.716;2022-11-12T09:37:39;12.20;99.90
21387;DHT22;10854;45.922;6.716;2022-11-12T09:40:21;12.20;99.90
21387;DHT22;10854;45.922;6.716;2022-11-12T09:42:52;12.30;99.90
21387;DHT22;10854;45.922;6.716;2022-11-12T09:45:29;12.40;99.90
21387;DHT22;10854;45.922;6.716;2022-11-12T09:48:04;12.70;99.10
21387;DHT22;10854;45.922;6.716;2022-11-12T09:50:57;13.00;97.90
21387;DHT22;10854;45.922;6.716;2022-11-12T09:53:56;13.30;92.90
21387;DHT22;10854;45.922;6.716;2022-11-12T09:56:32;13.70;93.00
21387;DHT22;10854;45.922;6.716;2022-11-12T09:59:10;14.30;93.00
21387;DHT22;10854;45.922;6.716;2022-11-12T10:01:59;15.00;91.30
21387;DHT22;10854;45.922;6.716;2022-11-12T10:11:36;16.30;81.30
21387;DHT22;10854;45.922;6.716;2022-11-12T10:17:19;16.40;76.60
21387;DHT22;10854;45.922;6.716;2022-11-12T10:20:12;16.20;77.70
21387;DHT22;10854;45.922;6.716;2022-11-12T10:23:11;16.40;76.00
21387;DHT22;10854;45.922;6.716;2022-11-12T10:26:17;16.90;74.60
21387;DHT22;10854;45.922;6.716;2022-11-12T10:28:51;17.30;70.30
21387;DHT22;10854;45.922;6.716;2022-11-12T10:31:23;17.60;71.00
21387;DHT22;10854;45.922;6.716;2022-11-12T10:34:17;18.00;70.50
21387;DHT22;10854;45.922;6.716;2022-11-12T10:39:40;18.80;66.40
21387;DHT22;10854;45.922;6.716;2022-11-12T10:42:17;19.10;65.00
21387;DHT22;10854;45.922;6.716;2022-11-12T10:45:18;19.40;65.10
21387;DHT22;10854;45.922;6.716;2022-11-12T10:48:20;19.80;62.30
21387;DHT22;10854;45.922;6.716;2022-11-12T10:50:53;20.20;62.90
21387;DHT22;10854;45.922;6.716;2022-11-12T10:53:36;20.60;59.30
21387;DHT22;10854;45.922;6.716;2022-11-12T10:56:41;20.80;58.70
21387;DHT22;10854;45.922;6.716;2022-11-12T10:59:41;21.10;57.60
21387;DHT22;10854;45.922;6.716;2022-11-12T11:02:17;21.10;58.50
21387;DHT22;10854;45.922;6.716;2022-11-12T11:04:46;21.40;58.20
21387;DHT22;10854;45.922;6.716;2022-11-12T11:07:23;21.60;57.00
21387;DHT22;10854;45.922;6.716;2022-11-12T11:09:59;21.70;56.00
21387;DHT22;10854;45.922;6.716;2022-11-12T11:12:41;21.90;55.40
21387;DHT22;10854;45.922;6.716;2022-11-12T11:15:22;22.10;55.40
21387;DHT22;10854;45.922;6.716;2022-11-12T11:17:56;22.20;53.50
21387;DHT22;10854;45.922;6.716;2022-11-12T11:20:33;22.10;53.10
21387;DHT22;10854;45.922;6.716;2022-11-12T11:23:21;22.00;52.90
21387;DHT22;10854;45.922;6.716;2022-11-12T11:25:57;21.90;52.60
21387;DHT22;10854;45.922;6.716;2022-11-12T11:28:56;21.60;52.60
21387;DHT22;10854;45.922;6.716;2022-11-12T11:34:42;21.60;51.90
21387;DHT22;10854;45.922;6.716;2022-11-12T11:37:36;21.20;51.90
21387;DHT22;10854;45.922;6.716;2022-11-12T11:50:07;20.50;54.20
21387;DHT22;10854;45.922;6.716;2022-11-12T11:52:48;20.70;54.30
21387;DHT22;10854;45.922;6.716;2022-11-12T11:58:15;21.10;52.80
21387;DHT22;10854;45.922;6.716;2022-11-12T12:00:59;20.70;53.40
21387;DHT22;10854;45.922;6.716;2022-11-12T12:03:49;20.30;53.80
21387;DHT22;10854;45.922;6.716;2022-11-12T12:22:10;20.50;56.10
21387;DHT22;10854;45.922;6.716;2022-11-12T12:24:52;21.00;55.00
21387;DHT22;10854;45.922;6.716;2022-11-12T12:28:01;21.40;54.50
21387;DHT22;10854;45.922;6.716;2022-11-12T12:30:46;21.50;54.40
21387;DHT22;10854;45.922;6.716;2022-11-12T12:33:58;21.60;53.50
21387;DHT22;10854;45.922;6.716;2022-11-12T12:36:41;21.50;53.90
21387;DHT22;10854;45.922;6.716;2022-11-12T12:39:55;21.40;54.50
21387;DHT22;10854;45.922;6.716;2022-11-12T12:42:45;21.30;53.20
21387;DHT22;10854;45.922;6.716;2022-11-12T12:45:44;21.40;54.50
21387;DHT22;10854;45.922;6.716;2022-11-12T12:48:34;21.60;54.70
21387;DHT22;10854;45.922;6.716;2022-11-12T12:51:04;21.40;54.00
21387;DHT22;10854;45.922;6.716;2022-11-12T12:53:34;21.20;54.30
21387;DHT22;10854;45.922;6.716;2022-11-12T13:13:37;18.70;58.10
21387;DHT22;10854;45.922;6.716;2022-11-12T13:17:11;18.50;58.50
21387;DHT22;10854;45.922;6.716;2022-11-12T13:21:13;18.40;58.80
21387;DHT22;10854;45.922;6.716;2022-11-12T13:24:16;18.50;59.20
21387;DHT22;10854;45.922;6.716;2022-11-12T13:27:07;18.40;59.40
21387;DHT22;10854;45.922;6.716;2022-11-12T13:34:21;18.00;59.80
21387;DHT22;10854;45.922;6.716;2022-11-12T13:37:54;17.40;60.90
21387;DHT22;10854;45.922;6.716;2022-11-12T13:41:43;16.80;62.30
21387;DHT22;10854;45.922;6.716;2022-11-12T13:45:24;16.40;64.30
21387;DHT22;10854;45.922;6.716;2022-11-12T13:51:39;15.90;65.30
21387;DHT22;10854;45.922;6.716;2022-11-12T13:54:32;15.70;66.30
21387;DHT22;10854;45.922;6.716;2022-11-12T13:58:29;15.60;67.00
21387;DHT22;10854;45.922;6.716;2022-11-12T14:01:19;15.40;67.50
21387;DHT22;10854;45.922;6.716;2022-11-12T14:03:51;15.20;67.30
21387;DHT22;10854;45.922;6.716;2022-11-12T14:06:33;15.10;67.70
21387;DHT22;10854;45.922;6.716;2022-11-12T14:12:27;14.80;68.40
21387;DHT22;10854;45.922;6.716;2022-11-12T14:18:04;14.50;69.90
21387;DHT22;10854;45.922;6.716;2022-11-12T14:20:46;14.40;70.00
21387;DHT22;10854;45.922;6.716;2022-11-12T14:23:52;14.30;71.20
21387;DHT22;10854;45.922;6.716;2022-11-12T14:26:37;14.20;70.90
21387;DHT22;10854;45.922;6.716;2022-11-12T14:29:17;14.10;70.80
21387;DHT22;10854;45.922;6.716;2022-11-12T14:32:02;14.00;71.30
21387;DHT22;10854;45.922;6.716;2022-11-12T14:34:32;13.90;71.80
21387;DHT22;10854;45.922;6.716;2022-11-12T14:37:48;13.80;72.40
21387;DHT22;10854;45.922;6.716;2022-11-12T14:40:29;13.70;73.30
21387;DHT22;10854;45.922;6.716;2022-11-12T14:43:01;13.60;73.40
21387;DHT22;10854;45.922;6.716;2022-11-12T14:45:49;13.60;73.90
21387;DHT22;10854;45.922;6.716;2022-11-12T14:48:43;13.60;75.00
21387;DHT22;10854;45.922;6.716;2022-11-12T14:51:48;13.60;74.20
21387;DHT22;10854;45.922;6.716;2022-11-12T14:54:36;13.60;74.40
21387;DHT22;10854;45.922;6.716;2022-11-12T14:57:27;13.50;75.30
21387;DHT22;10854;45.922;6.716;2022-11-12T14:59:59;13.50;75.00
21387;DHT22;10854;45.922;6.716;2022-11-12T15:02:49;13.40;75.20
21387;DHT22;10854;45.922;6.716;2022-11-12T15:05:31;13.40;75.90
21387;DHT22;10854;45.922;6.716;2022-11-12T15:08:36;13.30;76.30
21387;DHT22;10854;45.922;6.716;2022-11-12T15:11:35;13.20;76.60
21387;DHT22;10854;45.922;6.716;2022-11-12T15:14:35;13.20;76.90
21387;DHT22;10854;45.922;6.716;2022-11-12T15:20:20;12.90;77.70
21387;DHT22;10854;45.922;6.716;2022-11-12T15:22:57;12.90;78.30
21387;DHT22;10854;45.922;6.716;2022-11-12T15:25:37;12.80;78.60
21387;DHT22;10854;45.922;6.716;2022-11-12T15:28:28;12.70;79.10
21387;DHT22;10854;45.922;6.716;2022-11-12T15:31:17;12.60;80.30
21387;DHT22;10854;45.922;6.716;2022-11-12T15:33:47;12.40;80.90
21387;DHT22;10854;45.922;6.716;2022-11-12T15:36:31;12.30;81.10
21387;DHT22;10854;45.922;6.716;2022-11-12T15:39:10;12.10;81.60
21387;DHT22;10854;45.922;6.716;2022-11-12T15:41:43;12.10;82.40
21387;DHT22;10854;45.922;6.716;2022-11-12T15:44:35;11.90;83.30
21387;DHT22;10854;45.922;6.716;2022-11-12T15:47:14;11.80;84.60
21387;DHT22;10854;45.922;6.716;2022-11-12T15:49:53;11.70;85.50
21387;DHT22;10854;45.922;6.716;2022-11-12T15:52:31;11.50;86.10
21387;DHT22;10854;45.922;6.716;2022-11-12T15:55:02;11.40;86.70
21387;DHT22;10854;45.922;6.716;2022-11-12T15:57:37;11.40;87.10
21387;DHT22;10854;45.922;6.716;2022-11-12T16:02:55;11.20;88.80
21387;DHT22;10854;45.922;6.716;2022-11-12T16:05:24;11.10;89.90
21387;DHT22;10854;45.922;6.716;2022-11-12T16:07:58;11.00;90.40
21387;DHT22;10854;45.922;6.716;2022-11-12T16:10:27;10.90;91.00
21387;DHT22;10854;45.922;6.716;2022-11-12T16:12:58;10.80;91.70
21387;DHT22;10854;45.922;6.716;2022-11-12T16:15:28;10.70;92.50
21387;DHT22;10854;45.922;6.716;2022-11-12T16:17:58;10.60;93.50
21387;DHT22;10854;45.922;6.716;2022-11-12T16:20:38;10.60;94.70
21387;DHT22;10854;45.922;6.716;2022-11-12T16:23:13;10.50;97.70
21387;DHT22;10854;45.922;6.716;2022-11-12T16:25:49;10.30;99.70
21387;DHT22;10854;45.922;6.716;2022-11-12T16:28:22;10.20;99.90
21387;DHT22;10854;45.922;6.716;2022-11-12T16:30:57;10.20;99.90
21387;DHT22;10854;45.922;6.716;2022-11-12T16:33:26;10.10;99.90
21387;DHT22;10854;45.922;6.716;2022-11-12T16:35:56;10.00;99.90
21387;DHT22;10854;45.922;6.716;2022-11-12T16:38:40;9.90;99.90
21387;DHT22;10854;45.922;6.716;2022-11-12T16:41:32;9.90;99.90
21387;DHT22;10854;45.922;6.716;2022-11-12T16:44:05;9.80;99.90
21387;DHT22;10854;45.922;6.716;2022-11-12T16:46:36;9.70;99.90
21387;DHT22;10854;45.922;6.716;2022-11-12T16:52:33;9.60;99.90
21387;DHT22;10854;45.922;6.716;2022-11-12T16:55:05;9.50;99.90
21387;DHT22;10854;45.922;6.716;2022-11-12T16:58:00;9.50;99.90
21387;DHT22;10854;45.922;6.716;2022-11-12T17:00:32;9.40;99.90
21387;DHT22;10854;45.922;6.716;2022-11-12T17:03:03;9.40;99.90
21387;DHT22;10854;45.922;6.716;2022-11-12T17:05:34;9.30;99.90
21387;DHT22;10854;45.922;6.716;2022-11-12T17:08:08;9.30;99.90
21387;DHT22;10854;45.922;6.716;2022-11-12T17:11:14;9.20;99.90
21387;DHT22;10854;45.922;6.716;2022-11-12T17:13:49;9.10;99.90
21387;DHT22;10854;45.922;6.716;2022-11-12T17:16:28;9.10;99.90
21387;DHT22;10854;45.922;6.716;2022-11-12T17:19:14;9.10;99.90
21387;DHT22;10854;45.922;6.716;2022-11-12T17:21:49;9.00;99.90
21387;DHT22;10854;45.922;6.716;2022-11-12T17:24:19;9.00;99.90
21387;DHT22;10854;45.922;6.716;2022-11-12T17:26:49;8.90;99.90
21387;DHT22;10854;45.922;6.716;2022-11-12T17:29:27;8.90;99.90
21387;DHT22;10854;45.922;6.716;2022-11-12T17:32:21;8.90;99.90
21387;DHT22;10854;45.922;6.716;2022-11-12T17:34:57;8.80;99.90
21387;DHT22;10854;45.922;6.716;2022-11-12T17:37:51;8.80;99.90
21387;DHT22;10854;45.922;6.716;2022-11-12T17:40:19;8.70;99.90
21387;DHT22;10854;45.922;6.716;2022-11-12T17:42:53;8.70;99.90
21387;DHT22;10854;45.922;6.716;2022-11-12T17:45:25;8.70;99.90
21387;DHT22;10854;45.922;6.716;2022-11-12T17:47:57;8.60;99.90
21387;DHT22;10854;45.922;6.716;2022-11-12T17:50:36;8.60;99.90
21387;DHT22;10854;45.922;6.716;2022-11-12T17:53:30;8.50;99.90
21387;DHT22;10854;45.922;6.716;2022-11-12T17:56:01;8.50;99.90
21387;DHT22;10854;45.922;6.716;2022-11-12T17:58:34;8.50;99.90
21387;DHT22;10854;45.922;6.716;2022-11-12T18:01:25;8.40;99.90
21387;DHT22;10854;45.922;6.716;2022-11-12T18:04:19;8.40;99.90
21387;DHT22;10854;45.922;6.716;2022-11-12T18:07:01;8.40;99.90
21387;DHT22;10854;45.922;6.716;2022-11-12T18:09:30;8.30;99.90
21387;DHT22;10854;45.922;6.716;2022-11-12T18:12:06;8.20;99.90
21387;DHT22;10854;45.922;6.716;2022-11-12T18:14:42;8.20;99.90
21387;DHT22;10854;45.922;6.716;2022-11-12T18:17:12;8.10;99.90
21387;DHT22;10854;45.922;6.716;2022-11-12T18:19:47;8.10;99.90
21387;DHT22;10854;45.922;6.716;2022-11-12T18:22:24;8.00;99.90
21387;DHT22;10854;45.922;6.716;2022-11-12T18:24:59;8.00;99.90
21387;DHT22;10854;45.922;6.716;2022-11-12T18:27:29;7.90;99.90
21387;DHT22;10854;45.922;6.716;2022-11-12T18:30:05;7.90;99.90
21387;DHT22;10854;45.922;6.716;2022-11-12T18:32:47;7.80;99.90
21387;DHT22;10854;45.922;6.716;2022-11-12T18:35:18;7.80;99.90
21387;DHT22;10854;45.922;6.716;2022-11-12T18:38:04;7.70;99.90